Messwerte Lloydminister

Temperatur

Temperatur
°C
1576263600 12.00 12.00 -22
1576267200 13.00 13.00 -21
1576270800 14.00 14.00 -21
1576274400 15.00 15.00 -22
1576278000 16.00 16.00
1576281600 17.00 17.00 -24
1576285200 18.00 18.00 -24
1576288800 19.00 19.00 -24
1576292400 20.00 20.00 -23
1576296000 21.00 21.00 -23
1576299600 22.00 22.00 -21
1576303200 23.00 23.00 -21
1576306800 0.00 0.00 -21
1576310400 1.00 1.00 -21
1576314000 2.00 2.00
1576317600 3.00 3.00 -21
1576321200 4.00 4.00 -22
1576324800 5.00 5.00 -20
1576328400 6.00 6.00 -21
1576332000 7.00 7.00 -22
1576335600 8.00 8.00 -22
1576339200 9.00 9.00 -20
1576342800 10.00 10.00 -19
1576346400 11.00 11.00 -18

Aktuellste Messwerte

Wettercharakter
Wetter: freundlich
Temperatur
-18 °C
Feuchtigkeit
75 %
Wind
10 km/hWindrichtung: Südwest
Luftdruck
1008 hPa
Messzeit: 14. Dezember 2019, 11.00Datenquelle: METAR

Weitere Messstationen in der Nähe

Messstation Temperatur Entfernung
Vermilion Agdm -17 °C 54 km
St Paul Agdm -18 °C 112 km
Two Hills Agdm -17 °C 113 km
Cold Lake -23 °C 125 km
Killam Agdm -13 °C 130 km
Bodo Agdm -14 °C 131 km
Vegreville -15 °C 134 km

Wind

Windrichtung Böen Mittelwind
° km/h km/h
1576263600 12.00 11.00 - 12.00 60° 5
1576267200 13.00 12.00 - 13.00 100° 5
1576270800 14.00 13.00 - 14.00 90° 5
1576274400 15.00 14.00 - 15.00 90° 5
1576278000 16.00 15.00 - 16.00
1576281600 17.00 16.00 - 17.00 90° 10
1576285200 18.00 17.00 - 18.00 130° 5
1576288800 19.00 18.00 - 19.00 150° 10
1576292400 20.00 19.00 - 20.00 140° 10
1576296000 21.00 20.00 - 21.00 140° 10
1576299600 22.00 21.00 - 22.00 150° 10
1576303200 23.00 22.00 - 23.00 160° 15
1576306800 0.00 23.00 - 0.00 150° 15
1576310400 1.00 0.00 - 1.00 150° 10
1576314000 2.00 1.00 - 2.00
1576317600 3.00 2.00 - 3.00 160° 15
1576321200 4.00 3.00 - 4.00 140° 15
1576324800 5.00 4.00 - 5.00 160° 10
1576328400 6.00 5.00 - 6.00 180° 10
1576332000 7.00 6.00 - 7.00 180° 10
1576335600 8.00 7.00 - 8.00 180° 10
1576339200 9.00 8.00 - 9.00 200° 15
1576342800 10.00 9.00 - 10.00 200° 15
1576346400 11.00 10.00 - 11.00 210° 10

Ihre Wetterstation

Fehlt Ihre Wetterstation auf unserem Portal?

Schreiben Sie an network@meteonews.ch

Klima

Wann ist es am wärmsten? Wann regnet es am wenigsten? Unsere Klimadaten geben Auskunft.